Cheyenne, Oklahoma
Current Conditions -  °F | °C
As of 6:15 PM on Sunday 23 Nov 2014 (Local Time) from KELK Reporting Station
Overcast Overcast  
Wind Chill: 40°   Ceiling: 7000
Heat Index: 46°   Visibility: 10mi
Dew Point: 36°   Wind: 14mph
Humidity: 66%   Direction: 330°NNW
Pressure: 29.75"   Gusts: NA
Location:  35.61°N, 99.67°W
Report Text: KELK 240015Z AUTO 33012KT 10SM BKN070 OVC080 08/02 A2975 RMK AO2
Loading
Personal Weather Stations






























Interactive Weather Map New forecast layout! Learn more

10-Day Weather Forecast

Advertisements
Track Severe Weather on mobile